createdAt,value
2023-02-26T00:00:20.743Z,698.80
2023-02-26T00:05:22.720Z,699.47
2023-02-26T00:10:24.646Z,708.33
2023-02-26T00:15:26.963Z,688.60
2023-02-26T00:20:29.331Z,687.20
2023-02-26T00:25:31.200Z,690.37
2023-02-26T00:30:33.737Z,698.97
2023-02-26T00:35:36.053Z,705.87
2023-02-26T00:40:49.404Z,709.83
2023-02-26T00:46:10.029Z,679.77
2023-02-26T00:51:44.863Z,717.70
2023-02-26T00:56:47.121Z,685.33
2023-02-26T01:01:50.618Z,689.53
2023-02-26T01:06:57.538Z,661.17
2023-02-26T01:12:03.811Z,654.03
2023-02-26T01:17:25.754Z,637.47
2023-02-26T01:22:37.717Z,632.97
2023-02-26T01:27:40.048Z,653.07
2023-02-26T01:33:06.390Z,688.28
2023-02-26T01:38:28.305Z,686.55
2023-02-26T01:43:39.671Z,687.85
2023-02-26T01:48:57.560Z,685.38
2023-02-26T01:53:59.964Z,685.22
2023-02-26T01:59:06.032Z,689.05
2023-02-26T02:04:12.998Z,682.35
2023-02-26T02:09:15.132Z,682.38
2023-02-26T02:14:29.825Z,682.55
2023-02-26T02:19:50.431Z,679.30
2023-02-26T02:25:08.699Z,679.85
2023-02-26T02:30:29.517Z,682.03
2023-02-26T02:36:06.439Z,689.17
2023-02-26T02:41:14.959Z,689.03
2023-02-26T02:46:23.671Z,689.38
2023-02-26T02:51:39.322Z,691.60
2023-02-26T02:56:54.310Z,693.75
2023-02-26T03:02:16.482Z,687.65
2023-02-26T03:07:18.844Z,686.78
2023-02-26T03:12:20.727Z,685.80
2023-02-26T03:17:27.013Z,695.15
2023-02-26T03:22:41.071Z,683.00
2023-02-26T03:27:59.533Z,686.72
2023-02-26T03:33:24.316Z,684.90
2023-02-26T03:38:31.778Z,676.20
2023-02-26T03:43:53.730Z,675.03
2023-02-26T03:48:57.838Z,677.15
2023-02-26T03:54:08.177Z,678.28
2023-02-26T03:59:14.841Z,679.55
2023-02-26T04:04:29.056Z,678.40
2023-02-26T04:09:31.092Z,683.33
2023-02-26T04:14:36.401Z,679.63
2023-02-26T04:19:38.493Z,676.40
2023-02-26T04:24:41.049Z,678.72
2023-02-26T04:29:43.293Z,681.00
2023-02-26T04:34:45.272Z,682.20
2023-02-26T04:39:47.280Z,673.60
2023-02-26T04:44:49.611Z,673.38
2023-02-26T04:49:51.725Z,675.63
2023-02-26T04:54:54.591Z,679.03
2023-02-26T04:59:56.573Z,682.67
2023-02-26T05:05:03.156Z,671.30
2023-02-26T05:10:06.915Z,682.53
2023-02-26T05:15:09.214Z,678.72
2023-02-26T05:20:11.811Z,682.25
2023-02-26T05:25:14.177Z,677.63
2023-02-26T05:30:17.557Z,681.25
2023-02-26T05:35:19.617Z,672.47
2023-02-26T05:40:21.630Z,674.63
2023-02-26T05:45:23.500Z,682.15
2023-02-26T05:50:25.520Z,674.13
2023-02-26T05:55:27.584Z,673.67
2023-02-26T06:00:29.486Z,688.03
2023-02-26T06:05:31.363Z,676.03
2023-02-26T06:10:33.708Z,669.47
2023-02-26T06:15:36.232Z,666.15
2023-02-26T06:20:38.214Z,670.95
2023-02-26T06:25:40.085Z,668.80
2023-02-26T06:30:41.972Z,662.23
2023-02-26T06:35:43.891Z,656.70
2023-02-26T06:40:47.741Z,593.30
2023-02-26T06:45:49.739Z,586.90
2023-02-26T06:50:51.694Z,590.00
2023-02-26T06:55:53.962Z,554.37
2023-02-26T07:00:55.929Z,588.33
2023-02-26T07:06:03.508Z,674.20
2023-02-26T07:11:11.965Z,665.25
2023-02-26T07:16:13.937Z,664.65
2023-02-26T07:21:15.924Z,667.58
2023-02-26T07:26:17.759Z,665.33
2023-02-26T07:31:19.697Z,664.67
2023-02-26T07:36:21.753Z,664.45
2023-02-26T07:41:24.102Z,666.67
2023-02-26T07:46:26.353Z,670.17
2023-02-26T07:51:28.564Z,675.42
2023-02-26T07:56:30.799Z,675.67
2023-02-26T08:01:32.801Z,671.67
2023-02-26T08:06:35.423Z,676.33
2023-02-26T08:11:40.422Z,678.15
2023-02-26T08:16:42.297Z,677.85
2023-02-26T08:21:44.220Z,585.67
2023-02-26T08:26:46.740Z,546.23
2023-02-26T08:31:49.000Z,559.87
2023-02-26T08:36:51.020Z,561.47
2023-02-26T08:41:52.820Z,565.50
2023-02-26T08:46:54.745Z,565.10
2023-02-26T08:51:56.671Z,567.30
2023-02-26T08:56:58.589Z,556.10
2023-02-26T09:02:00.470Z,678.28
2023-02-26T09:07:02.416Z,687.60
2023-02-26T09:12:04.587Z,672.73
2023-02-26T09:17:06.518Z,674.37
2023-02-26T09:22:08.523Z,684.90
2023-02-26T09:27:10.515Z,692.80
2023-02-26T09:32:12.661Z,680.83
2023-02-26T09:37:14.617Z,679.13
2023-02-26T09:42:34.870Z,690.63
2023-02-26T09:47:46.627Z,684.97
2023-02-26T09:53:16.785Z,682.00
2023-02-26T09:58:32.761Z,683.97
2023-02-26T10:03:50.813Z,687.17
2023-02-26T10:09:01.528Z,686.17
2023-02-26T10:14:13.801Z,680.43
2023-02-26T10:19:19.772Z,687.10
2023-02-26T10:24:31.862Z,685.80
2023-02-26T10:29:45.804Z,688.53
2023-02-26T10:34:56.466Z,696.10
2023-02-26T10:40:19.489Z,692.25
2023-02-26T10:45:54.160Z,695.83
2023-02-26T10:50:59.380Z,697.22
2023-02-26T10:56:11.977Z,697.60
2023-02-26T11:01:17.854Z,698.97
2023-02-26T11:06:34.552Z,703.17
2023-02-26T11:11:47.853Z,703.70
2023-02-26T11:16:54.432Z,705.35
2023-02-26T11:21:57.133Z,704.60
2023-02-26T11:27:04.113Z,706.73
2023-02-26T11:32:07.708Z,699.85
2023-02-26T11:37:09.707Z,701.72
2023-02-26T11:42:11.695Z,702.00
2023-02-26T11:47:24.188Z,703.47
2023-02-26T11:52:30.315Z,699.07
2023-02-26T11:57:33.396Z,701.67
2023-02-26T12:02:40.444Z,701.67
2023-02-26T12:07:42.381Z,701.03
2023-02-26T12:13:10.409Z,712.93
2023-02-26T12:23:36.080Z,726.53
2023-02-26T12:28:44.079Z,717.85
2023-02-26T12:34:11.346Z,714.97
2023-02-26T12:39:37.766Z,722.50
2023-02-26T12:44:49.416Z,714.60
2023-02-26T12:50:07.388Z,714.85
2023-02-26T12:55:39.616Z,701.27
2023-02-26T13:01:00.258Z,707.97
2023-02-26T13:06:12.648Z,702.37
2023-02-26T13:11:44.672Z,706.63
2023-02-26T13:17:14.627Z,707.17
2023-02-26T13:22:20.234Z,704.10
2023-02-26T13:27:27.027Z,701.80
2023-02-26T13:32:29.698Z,697.85
2023-02-26T13:37:38.199Z,703.93
2023-02-26T13:42:58.130Z,700.00
2023-02-26T13:48:31.803Z,704.03
2023-02-26T13:53:56.001Z,703.87
2023-02-26T13:59:25.782Z,707.43
2023-02-26T14:04:33.149Z,702.40
2023-02-26T14:10:03.225Z,700.78
2023-02-26T14:15:14.258Z,703.27
2023-02-26T14:20:32.347Z,698.33
2023-02-26T14:25:38.550Z,697.60
2023-02-26T14:30:47.007Z,701.37
2023-02-26T14:35:51.634Z,700.30
2023-02-26T14:41:25.914Z,702.60
2023-02-26T14:46:28.582Z,699.43
2023-02-26T14:52:04.084Z,698.17
2023-02-26T14:57:27.522Z,691.90
2023-02-26T15:02:32.208Z,702.50
2023-02-26T15:08:05.289Z,693.33
2023-02-26T15:13:35.284Z,696.77
2023-02-26T15:18:56.889Z,701.40
2023-02-26T15:24:00.135Z,698.60
2023-02-26T15:29:05.722Z,701.90
2023-02-26T15:34:12.720Z,697.87
2023-02-26T15:39:17.576Z,697.55
2023-02-26T15:44:30.504Z,688.97
2023-02-26T15:49:42.561Z,691.30
2023-02-26T15:54:47.933Z,692.17
2023-02-26T15:59:52.462Z,695.83
2023-02-26T16:04:54.414Z,691.73
2023-02-26T16:09:57.012Z,695.23
2023-02-26T16:15:02.390Z,695.40
2023-02-26T16:20:11.013Z,692.50
2023-02-26T16:25:36.329Z,691.73
2023-02-26T16:30:40.499Z,696.27
2023-02-26T16:35:46.183Z,692.03
2023-02-26T16:40:57.464Z,693.13
2023-02-26T16:46:02.695Z,692.03
2023-02-26T16:51:15.886Z,698.85
2023-02-26T16:56:20.531Z,693.35
2023-02-26T17:01:23.292Z,701.95
2023-02-26T17:06:25.187Z,698.70
2023-02-26T17:11:33.415Z,688.60
2023-02-26T17:16:35.863Z,694.05
2023-02-26T17:21:43.701Z,696.97
2023-02-26T17:26:46.638Z,689.58
2023-02-26T17:31:49.368Z,689.50
2023-02-26T17:36:57.215Z,687.97
2023-02-26T17:41:59.420Z,691.37
2023-02-26T17:47:01.387Z,691.43
2023-02-26T17:52:03.620Z,689.83
2023-02-26T17:57:06.859Z,694.70
2023-02-26T18:02:18.298Z,687.05
2023-02-26T18:07:27.149Z,690.50
2023-02-26T18:12:29.119Z,688.80
2023-02-26T18:17:31.432Z,687.83
2023-02-26T18:22:34.618Z,688.70
2023-02-26T18:27:36.488Z,690.27
2023-02-26T18:32:38.398Z,691.47
2023-02-26T18:37:40.372Z,693.60
2023-02-26T18:42:42.914Z,687.00
2023-02-26T18:47:44.861Z,692.87
2023-02-26T18:52:46.861Z,689.13
2023-02-26T18:57:48.790Z,699.75
2023-02-26T19:02:50.894Z,693.70
2023-02-26T19:07:54.202Z,701.05
2023-02-26T19:12:56.293Z,701.70
2023-02-26T19:17:58.333Z,685.40
2023-02-26T19:23:01.067Z,688.80
2023-02-26T19:28:03.479Z,683.80
2023-02-26T19:33:07.083Z,682.90
2023-02-26T19:38:10.171Z,702.43
2023-02-26T19:43:12.335Z,684.15
2023-02-26T19:48:14.262Z,683.17
2023-02-26T19:53:16.172Z,693.78
2023-02-26T19:58:19.676Z,689.78
2023-02-26T20:03:21.551Z,687.03
2023-02-26T20:08:26.932Z,689.13
2023-02-26T20:13:34.583Z,685.83
2023-02-26T20:18:37.039Z,693.78
2023-02-26T20:23:39.841Z,688.95
2023-02-26T20:28:42.366Z,687.55
2023-02-26T20:33:44.380Z,690.53
2023-02-26T20:38:46.365Z,688.58
2023-02-26T20:43:48.300Z,690.42
2023-02-26T20:48:50.308Z,686.05
2023-02-26T20:53:52.284Z,683.08
2023-02-26T20:58:54.655Z,682.75
2023-02-26T21:03:56.553Z,689.83
2023-02-26T21:09:00.268Z,688.47
2023-02-26T21:14:03.102Z,682.42
2023-02-26T21:19:05.064Z,687.13
2023-02-26T21:24:07.316Z,679.75
2023-02-26T21:29:09.449Z,680.63
2023-02-26T21:34:32.724Z,679.47
2023-02-26T21:39:33.961Z,683.88
2023-02-26T21:44:36.230Z,684.95
2023-02-26T21:49:38.421Z,679.13
2023-02-26T21:54:40.381Z,684.50
2023-02-26T21:59:42.273Z,680.40
2023-02-26T22:04:45.977Z,681.10
2023-02-26T22:09:49.104Z,680.35
2023-02-26T22:14:51.842Z,681.42
2023-02-26T22:19:53.772Z,680.42
2023-02-26T22:24:55.830Z,675.88
2023-02-26T22:29:57.781Z,680.17
2023-02-26T22:34:59.768Z,677.30
2023-02-26T22:40:01.704Z,671.88
2023-02-26T22:45:04.550Z,671.27
2023-02-26T22:50:06.615Z,675.35
2023-02-26T22:55:10.007Z,673.05
2023-02-26T23:00:15.085Z,676.90
2023-02-26T23:05:17.658Z,675.42
2023-02-26T23:10:21.466Z,678.75
2023-02-26T23:15:23.356Z,673.53
2023-02-26T23:20:25.292Z,682.15
2023-02-26T23:25:27.203Z,674.97
2023-02-26T23:30:29.180Z,685.90
2023-02-26T23:35:31.128Z,681.03
2023-02-26T23:40:33.593Z,665.97
2023-02-26T23:45:35.507Z,679.53
2023-02-26T23:50:37.497Z,692.27
2023-02-26T23:55:39.389Z,665.00
